West Port Arthur, Texas
Current Conditions -  °F | °C
As of 2:53 AM on Monday 24 Nov 2014 (Local Time) from KBPT Reporting Station
Clear Clear  
Wind Chill: 59°   Ceiling: Unl
Heat Index: 59°   Visibility: 10mi
Dew Point: 48°   Wind: 9mph
Humidity: 67%   Direction: 320°NW
Pressure: 29.79"   Gusts: NA
Location:  29.7569°N, 94.1898°W
Report Text: KBPT 240853Z AUTO 32008KT 10SM CLR 15/09 A2979 RMK AO2 SLP086 60000 T01500089 53029
Loading
Personal Weather Stations






























Interactive Weather Map New forecast layout! Learn more

10-Day Weather Forecast

Advertisements
Track Severe Weather on mobile